sensor_id;sensor_type;location;lat;lon;timestamp;P1;durP1;ratioP1;P2;durP2;ratioP2
69485;SDS011;56677;51.710;5.366;2022-12-07T06:52:27;2.90;;;2.13;;
69485;SDS011;56677;51.710;5.366;2022-12-07T06:54:52;5.43;;;1.90;;
69485;SDS011;56677;51.710;5.366;2022-12-07T06:57:17;2.95;;;1.65;;
69485;SDS011;56677;51.710;5.366;2022-12-07T06:59:42;4.78;;;2.10;;
69485;SDS011;56677;51.710;5.366;2022-12-07T07:02:08;3.03;;;1.80;;
69485;SDS011;56677;51.710;5.366;2022-12-07T07:04:33;3.03;;;2.10;;
69485;SDS011;56677;51.710;5.366;2022-12-07T07:06:58;3.42;;;1.85;;
69485;SDS011;56677;51.710;5.366;2022-12-07T07:09:23;2.65;;;1.63;;
69485;SDS011;56677;51.710;5.366;2022-12-07T07:11:48;3.75;;;1.70;;
69485;SDS011;56677;51.710;5.366;2022-12-07T07:14:14;2.77;;;1.50;;
69485;SDS011;56677;51.710;5.366;2022-12-07T07:16:39;4.30;;;1.60;;
69485;SDS011;56677;51.710;5.366;2022-12-07T07:19:04;7.13;;;1.77;;
69485;SDS011;56677;51.710;5.366;2022-12-07T07:21:29;2.70;;;1.70;;
69485;SDS011;56677;51.710;5.366;2022-12-07T07:23:54;3.90;;;1.70;;
69485;SDS011;56677;51.710;5.366;2022-12-07T07:26:19;6.07;;;1.95;;
69485;SDS011;56677;51.710;5.366;2022-12-07T07:28:44;4.22;;;1.70;;
69485;SDS011;56677;51.710;5.366;2022-12-07T07:31:09;3.17;;;1.80;;
69485;SDS011;56677;51.710;5.366;2022-12-07T07:33:35;4.35;;;1.40;;
69485;SDS011;56677;51.710;5.366;2022-12-07T07:36:00;3.47;;;1.70;;
69485;SDS011;56677;51.710;5.366;2022-12-07T07:38:25;5.70;;;1.90;;
69485;SDS011;56677;51.710;5.366;2022-12-07T07:40:50;4.07;;;1.67;;
69485;SDS011;56677;51.710;5.366;2022-12-07T07:43:15;3.78;;;1.80;;
69485;SDS011;56677;51.710;5.366;2022-12-07T07:45:40;5.40;;;2.28;;
69485;SDS011;56677;51.710;5.366;2022-12-07T07:48:05;3.17;;;1.40;;
69485;SDS011;56677;51.710;5.366;2022-12-07T07:50:30;3.10;;;1.40;;
69485;SDS011;56677;51.710;5.366;2022-12-07T07:52:56;3.10;;;1.60;;
69485;SDS011;56677;51.710;5.366;2022-12-07T07:55:23;3.03;;;1.47;;
69485;SDS011;56677;51.710;5.366;2022-12-07T07:57:48;2.55;;;1.60;;
69485;SDS011;56677;51.710;5.366;2022-12-07T08:00:13;3.72;;;1.50;;
69485;SDS011;56677;51.710;5.366;2022-12-07T08:02:39;3.13;;;1.43;;
69485;SDS011;56677;51.710;5.366;2022-12-07T08:05:04;2.90;;;1.52;;
69485;SDS011;56677;51.710;5.366;2022-12-07T08:07:29;4.17;;;1.83;;
69485;SDS011;56677;51.710;5.366;2022-12-07T08:09:55;3.28;;;1.30;;
69485;SDS011;56677;51.710;5.366;2022-12-07T08:12:20;3.67;;;1.47;;
69485;SDS011;56677;51.710;5.366;2022-12-07T08:14:45;4.57;;;1.80;;
69485;SDS011;56677;51.710;5.366;2022-12-07T08:17:10;4.40;;;1.38;;
69485;SDS011;56677;51.710;5.366;2022-12-07T08:19:35;3.83;;;2.00;;
69485;SDS011;56677;51.710;5.366;2022-12-07T08:22:00;4.65;;;1.80;;
69485;SDS011;56677;51.710;5.366;2022-12-07T08:24:25;2.65;;;1.70;;
69485;SDS011;56677;51.710;5.366;2022-12-07T08:26:51;3.03;;;1.70;;
69485;SDS011;56677;51.710;5.366;2022-12-07T08:29:16;3.88;;;1.77;;
69485;SDS011;56677;51.710;5.366;2022-12-07T08:31:41;5.95;;;1.83;;
69485;SDS011;56677;51.710;5.366;2022-12-07T08:34:06;3.45;;;1.70;;
69485;SDS011;56677;51.710;5.366;2022-12-07T08:36:31;2.85;;;1.65;;
69485;SDS011;56677;51.710;5.366;2022-12-07T08:38:56;2.53;;;1.52;;
69485;SDS011;56677;51.710;5.366;2022-12-07T08:41:21;4.35;;;1.92;;
69485;SDS011;56677;51.710;5.366;2022-12-07T08:43:46;4.10;;;1.60;;
69485;SDS011;56677;51.710;5.366;2022-12-07T08:46:19;4.37;;;1.97;;
69485;SDS011;56677;51.710;5.366;2022-12-07T08:48:46;3.08;;;1.42;;
69485;SDS011;56677;51.710;5.366;2022-12-07T08:51:13;3.15;;;1.67;;
69485;SDS011;56677;51.710;5.366;2022-12-07T08:53:38;2.53;;;1.17;;
69485;SDS011;56677;51.710;5.366;2022-12-07T08:56:04;2.10;;;1.70;;
69485;SDS011;56677;51.710;5.366;2022-12-07T08:58:30;4.57;;;1.50;;
69485;SDS011;56677;51.710;5.366;2022-12-07T09:00:55;3.83;;;1.63;;
69485;SDS011;56677;51.710;5.366;2022-12-07T09:03:20;2.50;;;1.70;;
69485;SDS011;56677;51.710;5.366;2022-12-07T09:05:45;2.58;;;1.73;;
69485;SDS011;56677;51.710;5.366;2022-12-07T09:08:11;4.80;;;1.90;;
69485;SDS011;56677;51.710;5.366;2022-12-07T09:10:36;2.70;;;1.77;;
69485;SDS011;56677;51.710;5.366;2022-12-07T09:13:01;3.53;;;2.03;;
69485;SDS011;56677;51.710;5.366;2022-12-07T09:15:27;3.73;;;1.47;;
69485;SDS011;56677;51.710;5.366;2022-12-07T09:17:52;3.10;;;1.27;;
69485;SDS011;56677;51.710;5.366;2022-12-07T09:20:17;4.53;;;1.95;;
69485;SDS011;56677;51.710;5.366;2022-12-07T09:22:42;4.68;;;1.77;;
69485;SDS011;56677;51.710;5.366;2022-12-07T09:25:07;3.97;;;1.60;;
69485;SDS011;56677;51.710;5.366;2022-12-07T09:27:33;3.33;;;1.77;;
69485;SDS011;56677;51.710;5.366;2022-12-07T09:29:58;3.33;;;1.45;;
69485;SDS011;56677;51.710;5.366;2022-12-07T09:32:23;2.83;;;1.43;;
69485;SDS011;56677;51.710;5.366;2022-12-07T09:34:48;3.85;;;1.70;;
69485;SDS011;56677;51.710;5.366;2022-12-07T09:37:13;3.70;;;1.52;;
69485;SDS011;56677;51.710;5.366;2022-12-07T09:39:38;2.22;;;1.55;;
69485;SDS011;56677;51.710;5.366;2022-12-07T09:42:04;2.80;;;1.67;;
69485;SDS011;56677;51.710;5.366;2022-12-07T09:44:29;1.77;;;1.10;;
69485;SDS011;56677;51.710;5.366;2022-12-07T09:46:55;2.57;;;1.40;;
69485;SDS011;56677;51.710;5.366;2022-12-07T09:49:21;3.65;;;1.52;;
69485;SDS011;56677;51.710;5.366;2022-12-07T09:51:46;2.47;;;1.47;;
69485;SDS011;56677;51.710;5.366;2022-12-07T09:54:13;3.25;;;1.80;;
69485;SDS011;56677;51.710;5.366;2022-12-07T09:56:38;3.13;;;1.63;;
69485;SDS011;56677;51.710;5.366;2022-12-07T09:59:03;2.80;;;1.70;;
69485;SDS011;56677;51.710;5.366;2022-12-07T10:01:32;2.97;;;1.60;;
69485;SDS011;56677;51.710;5.366;2022-12-07T10:06:41;3.00;;;1.55;;
69485;SDS011;56677;51.710;5.366;2022-12-07T10:09:14;2.47;;;1.60;;
69485;SDS011;56677;51.710;5.366;2022-12-07T10:14:23;2.17;;;1.50;;
69485;SDS011;56677;51.710;5.366;2022-12-07T10:16:48;2.63;;;1.60;;
69485;SDS011;56677;51.710;5.366;2022-12-07T10:19:32;3.83;;;1.58;;
69485;SDS011;56677;51.710;5.366;2022-12-07T10:22:01;2.97;;;1.60;;
69485;SDS011;56677;51.710;5.366;2022-12-07T10:24:27;3.58;;;1.75;;
69485;SDS011;56677;51.710;5.366;2022-12-07T10:26:52;2.83;;;1.80;;
69485;SDS011;56677;51.710;5.366;2022-12-07T10:31:59;2.13;;;1.63;;
69485;SDS011;56677;51.710;5.366;2022-12-07T10:36:53;2.25;;;1.48;;
69485;SDS011;56677;51.710;5.366;2022-12-07T10:39:19;2.03;;;1.40;;
69485;SDS011;56677;51.710;5.366;2022-12-07T10:42:03;3.10;;;1.63;;
69485;SDS011;56677;51.710;5.366;2022-12-07T10:44:29;1.80;;;1.27;;
69485;SDS011;56677;51.710;5.366;2022-12-07T10:52:01;5.73;;;1.70;;
69485;SDS011;56677;51.710;5.366;2022-12-07T11:00:00;2.33;;;1.80;;
69485;SDS011;56677;51.710;5.366;2022-12-07T11:15:38;2.88;;;1.35;;
69485;SDS011;56677;51.710;5.366;2022-12-07T11:18:08;2.67;;;1.57;;
69485;SDS011;56677;51.710;5.366;2022-12-07T11:33:47;3.42;;;1.40;;
69485;SDS011;56677;51.710;5.366;2022-12-07T11:36:17;2.78;;;1.88;;
69485;SDS011;56677;51.710;5.366;2022-12-07T11:38:52;3.38;;;1.50;;
69485;SDS011;56677;51.710;5.366;2022-12-07T11:41:20;2.35;;;1.50;;
69485;SDS011;56677;51.710;5.366;2022-12-07T11:43:59;2.03;;;1.50;;
69485;SDS011;56677;51.710;5.366;2022-12-07T11:46:27;2.70;;;1.50;;
69485;SDS011;56677;51.710;5.366;2022-12-07T11:48:58;3.35;;;1.73;;
69485;SDS011;56677;51.710;5.366;2022-12-07T11:51:26;4.05;;;1.60;;
69485;SDS011;56677;51.710;5.366;2022-12-07T11:53:54;3.08;;;1.98;;
69485;SDS011;56677;51.710;5.366;2022-12-07T11:56:22;2.27;;;1.40;;
69485;SDS011;56677;51.710;5.366;2022-12-07T12:04:03;2.63;;;1.48;;
69485;SDS011;56677;51.710;5.366;2022-12-07T12:06:24;2.95;;;1.65;;
69485;SDS011;56677;51.710;5.366;2022-12-07T12:11:30;3.50;;;1.60;;
69485;SDS011;56677;51.710;5.366;2022-12-07T12:16:31;2.30;;;1.73;;
69485;SDS011;56677;51.710;5.366;2022-12-07T12:21:28;3.53;;;1.45;;
69485;SDS011;56677;51.710;5.366;2022-12-07T12:24:00;2.10;;;1.38;;
69485;SDS011;56677;51.710;5.366;2022-12-07T12:26:29;2.33;;;1.42;;
69485;SDS011;56677;51.710;5.366;2022-12-07T12:28:58;2.90;;;1.53;;
69485;SDS011;56677;51.710;5.366;2022-12-07T12:33:49;2.40;;;1.45;;
69485;SDS011;56677;51.710;5.366;2022-12-07T12:44:00;2.57;;;1.43;;
69485;SDS011;56677;51.710;5.366;2022-12-07T12:48:53;2.45;;;1.52;;
69485;SDS011;56677;51.710;5.366;2022-12-07T12:54:08;2.17;;;1.10;;
69485;SDS011;56677;51.710;5.366;2022-12-07T12:56:40;1.80;;;1.08;;
69485;SDS011;56677;51.710;5.366;2022-12-07T13:01:48;2.60;;;1.60;;
69485;SDS011;56677;51.710;5.366;2022-12-07T13:04:17;2.03;;;1.40;;
69485;SDS011;56677;51.710;5.366;2022-12-07T13:06:43;2.35;;;1.17;;
69485;SDS011;56677;51.710;5.366;2022-12-07T13:09:17;3.00;;;1.50;;
69485;SDS011;56677;51.710;5.366;2022-12-07T13:11:44;2.72;;;1.35;;
69485;SDS011;56677;51.710;5.366;2022-12-07T13:16:53;3.00;;;1.80;;
69485;SDS011;56677;51.710;5.366;2022-12-07T13:22:02;2.03;;;1.33;;
69485;SDS011;56677;51.710;5.366;2022-12-07T13:24:28;2.13;;;1.30;;
69485;SDS011;56677;51.710;5.366;2022-12-07T13:26:56;2.45;;;1.38;;
69485;SDS011;56677;51.710;5.366;2022-12-07T13:29:22;2.90;;;1.30;;
69485;SDS011;56677;51.710;5.366;2022-12-07T13:31:49;2.10;;;1.50;;
69485;SDS011;56677;51.710;5.366;2022-12-07T13:39:46;2.80;;;1.55;;
69485;SDS011;56677;51.710;5.366;2022-12-07T13:42:30;1.98;;;1.30;;
69485;SDS011;56677;51.710;5.366;2022-12-07T13:44:56;2.10;;;1.37;;
69485;SDS011;56677;51.710;5.366;2022-12-07T13:47:41;2.75;;;1.40;;
69485;SDS011;56677;51.710;5.366;2022-12-07T13:52:46;2.15;;;1.10;;
69485;SDS011;56677;51.710;5.366;2022-12-07T13:55:14;1.98;;;1.48;;
69485;SDS011;56677;51.710;5.366;2022-12-07T13:57:40;2.17;;;1.40;;
69485;SDS011;56677;51.710;5.366;2022-12-07T14:00:06;2.30;;;1.30;;
69485;SDS011;56677;51.710;5.366;2022-12-07T14:02:54;2.17;;;1.73;;
69485;SDS011;56677;51.710;5.366;2022-12-07T14:05:26;2.58;;;1.58;;
69485;SDS011;56677;51.710;5.366;2022-12-07T14:07:59;1.88;;;1.30;;
69485;SDS011;56677;51.710;5.366;2022-12-07T14:12:49;3.00;;;1.67;;
69485;SDS011;56677;51.710;5.366;2022-12-07T14:15:19;2.37;;;1.00;;
69485;SDS011;56677;51.710;5.366;2022-12-07T14:17:51;1.88;;;1.35;;
69485;SDS011;56677;51.710;5.366;2022-12-07T14:20:29;2.60;;;1.20;;
69485;SDS011;56677;51.710;5.366;2022-12-07T14:22:55;2.35;;;1.40;;
69485;SDS011;56677;51.710;5.366;2022-12-07T14:25:24;2.00;;;1.27;;
69485;SDS011;56677;51.710;5.366;2022-12-07T14:30:15;1.95;;;1.20;;
69485;SDS011;56677;51.710;5.366;2022-12-07T14:32:40;2.20;;;1.15;;
69485;SDS011;56677;51.710;5.366;2022-12-07T14:35:09;2.55;;;1.30;;
69485;SDS011;56677;51.710;5.366;2022-12-07T14:37:35;2.15;;;1.20;;
69485;SDS011;56677;51.710;5.366;2022-12-07T14:40:00;2.37;;;1.27;;
69485;SDS011;56677;51.710;5.366;2022-12-07T14:42:27;2.90;;;1.30;;
69485;SDS011;56677;51.710;5.366;2022-12-07T14:44:52;2.97;;;1.38;;
69485;SDS011;56677;51.710;5.366;2022-12-07T14:47:17;2.70;;;1.50;;
69485;SDS011;56677;51.710;5.366;2022-12-07T14:49:42;3.45;;;1.52;;
69485;SDS011;56677;51.710;5.366;2022-12-07T14:52:11;2.78;;;1.42;;
69485;SDS011;56677;51.710;5.366;2022-12-07T14:54:38;1.67;;;1.40;;
69485;SDS011;56677;51.710;5.366;2022-12-07T14:57:03;2.60;;;1.45;;
69485;SDS011;56677;51.710;5.366;2022-12-07T14:59:28;2.07;;;0.90;;
69485;SDS011;56677;51.710;5.366;2022-12-07T15:01:53;3.10;;;1.50;;
69485;SDS011;56677;51.710;5.366;2022-12-07T15:04:18;2.38;;;1.42;;
69485;SDS011;56677;51.710;5.366;2022-12-07T15:06:54;3.35;;;1.73;;
69485;SDS011;56677;51.710;5.366;2022-12-07T15:09:19;2.28;;;1.40;;
69485;SDS011;56677;51.710;5.366;2022-12-07T15:11:44;2.53;;;1.73;;
69485;SDS011;56677;51.710;5.366;2022-12-07T15:14:09;1.93;;;1.30;;
69485;SDS011;56677;51.710;5.366;2022-12-07T15:16:35;2.38;;;1.30;;
69485;SDS011;56677;51.710;5.366;2022-12-07T15:19:00;1.83;;;0.80;;
69485;SDS011;56677;51.710;5.366;2022-12-07T15:21:25;1.73;;;1.15;;
69485;SDS011;56677;51.710;5.366;2022-12-07T15:23:51;1.43;;;1.27;;
69485;SDS011;56677;51.710;5.366;2022-12-07T15:26:16;2.42;;;1.40;;
69485;SDS011;56677;51.710;5.366;2022-12-07T15:28:41;2.47;;;1.45;;
69485;SDS011;56677;51.710;5.366;2022-12-07T15:31:13;2.97;;;1.73;;
69485;SDS011;56677;51.710;5.366;2022-12-07T15:33:39;2.85;;;1.38;;
69485;SDS011;56677;51.710;5.366;2022-12-07T15:36:04;1.97;;;1.30;;
69485;SDS011;56677;51.710;5.366;2022-12-07T15:38:29;1.70;;;1.43;;
69485;SDS011;56677;51.710;5.366;2022-12-07T15:40:54;2.53;;;1.27;;
69485;SDS011;56677;51.710;5.366;2022-12-07T15:43:19;1.92;;;1.17;;
69485;SDS011;56677;51.710;5.366;2022-12-07T15:45:44;2.10;;;1.48;;
69485;SDS011;56677;51.710;5.366;2022-12-07T15:48:14;1.77;;;1.10;;
69485;SDS011;56677;51.710;5.366;2022-12-07T15:50:39;2.42;;;1.38;;
69485;SDS011;56677;51.710;5.366;2022-12-07T15:53:04;2.80;;;1.55;;
69485;SDS011;56677;51.710;5.366;2022-12-07T15:55:30;1.83;;;1.55;;
69485;SDS011;56677;51.710;5.366;2022-12-07T15:57:55;1.60;;;1.30;;
69485;SDS011;56677;51.710;5.366;2022-12-07T16:00:20;2.10;;;1.52;;
69485;SDS011;56677;51.710;5.366;2022-12-07T16:02:45;1.70;;;1.50;;
69485;SDS011;56677;51.710;5.366;2022-12-07T16:05:10;2.33;;;1.30;;
69485;SDS011;56677;51.710;5.366;2022-12-07T16:07:35;2.97;;;1.80;;
69485;SDS011;56677;51.710;5.366;2022-12-07T16:10:00;1.65;;;1.30;;
69485;SDS011;56677;51.710;5.366;2022-12-07T16:12:25;1.90;;;1.40;;
69485;SDS011;56677;51.710;5.366;2022-12-07T16:14:51;2.63;;;1.20;;
69485;SDS011;56677;51.710;5.366;2022-12-07T16:17:16;2.42;;;1.58;;
69485;SDS011;56677;51.710;5.366;2022-12-07T16:19:41;2.73;;;1.43;;
69485;SDS011;56677;51.710;5.366;2022-12-07T16:22:06;2.42;;;1.42;;
69485;SDS011;56677;51.710;5.366;2022-12-07T16:24:31;4.00;;;1.70;;
69485;SDS011;56677;51.710;5.366;2022-12-07T16:26:56;3.13;;;1.90;;
69485;SDS011;56677;51.710;5.366;2022-12-07T16:29:22;1.20;;;0.95;;
69485;SDS011;56677;51.710;5.366;2022-12-07T16:31:47;2.37;;;1.17;;
69485;SDS011;56677;51.710;5.366;2022-12-07T16:34:12;3.27;;;2.10;;
69485;SDS011;56677;51.710;5.366;2022-12-07T16:36:38;4.10;;;2.97;;
69485;SDS011;56677;51.710;5.366;2022-12-07T16:39:03;5.88;;;3.63;;
69485;SDS011;56677;51.710;5.366;2022-12-07T16:41:28;5.78;;;4.13;;
69485;SDS011;56677;51.710;5.366;2022-12-07T16:43:53;6.63;;;4.78;;
69485;SDS011;56677;51.710;5.366;2022-12-07T16:46:19;5.50;;;4.22;;
69485;SDS011;56677;51.710;5.366;2022-12-07T16:48:44;9.10;;;4.43;;
69485;SDS011;56677;51.710;5.366;2022-12-07T16:51:10;9.27;;;4.87;;
69485;SDS011;56677;51.710;5.366;2022-12-07T16:53:35;9.70;;;4.80;;
69485;SDS011;56677;51.710;5.366;2022-12-07T16:56:01;10.38;;;4.55;;
69485;SDS011;56677;51.710;5.366;2022-12-07T16:58:26;11.73;;;4.43;;
69485;SDS011;56677;51.710;5.366;2022-12-07T17:00:51;11.85;;;4.32;;
69485;SDS011;56677;51.710;5.366;2022-12-07T17:03:16;9.13;;;3.80;;
69485;SDS011;56677;51.710;5.366;2022-12-07T17:05:42;8.93;;;3.80;;
69485;SDS011;56677;51.710;5.366;2022-12-07T17:08:08;11.68;;;4.30;;
69485;SDS011;56677;51.710;5.366;2022-12-07T17:10:34;6.90;;;3.67;;
69485;SDS011;56677;51.710;5.366;2022-12-07T17:13:00;11.70;;;4.15;;
69485;SDS011;56677;51.710;5.366;2022-12-07T17:15:25;10.53;;;3.77;;
69485;SDS011;56677;51.710;5.366;2022-12-07T17:17:54;9.95;;;3.90;;
69485;SDS011;56677;51.710;5.366;2022-12-07T17:20:21;8.18;;;3.40;;
69485;SDS011;56677;51.710;5.366;2022-12-07T17:22:46;10.03;;;3.63;;
69485;SDS011;56677;51.710;5.366;2022-12-07T17:25:12;9.90;;;3.53;;
69485;SDS011;56677;51.710;5.366;2022-12-07T17:27:37;11.93;;;3.33;;
69485;SDS011;56677;51.710;5.366;2022-12-07T17:30:03;7.27;;;3.17;;
69485;SDS011;56677;51.710;5.366;2022-12-07T17:32:28;7.07;;;3.08;;
69485;SDS011;56677;51.710;5.366;2022-12-07T17:34:54;9.03;;;3.43;;
69485;SDS011;56677;51.710;5.366;2022-12-07T17:37:19;11.55;;;3.10;;
69485;SDS011;56677;51.710;5.366;2022-12-07T17:39:44;7.03;;;3.03;;
69485;SDS011;56677;51.710;5.366;2022-12-07T17:42:09;7.63;;;2.35;;
69485;SDS011;56677;51.710;5.366;2022-12-07T17:44:34;7.93;;;2.70;;
69485;SDS011;56677;51.710;5.366;2022-12-07T17:47:00;8.73;;;2.80;;
69485;SDS011;56677;51.710;5.366;2022-12-07T17:49:25;6.28;;;2.17;;
69485;SDS011;56677;51.710;5.366;2022-12-07T17:51:50;10.33;;;3.10;;
69485;SDS011;56677;51.710;5.366;2022-12-07T17:54:16;9.85;;;2.70;;
69485;SDS011;56677;51.710;5.366;2022-12-07T17:56:41;6.40;;;2.15;;
69485;SDS011;56677;51.710;5.366;2022-12-07T17:59:06;6.30;;;2.33;;
69485;SDS011;56677;51.710;5.366;2022-12-07T18:01:32;9.57;;;2.70;;
69485;SDS011;56677;51.710;5.366;2022-12-07T18:03:57;5.47;;;2.70;;
69485;SDS011;56677;51.710;5.366;2022-12-07T18:06:22;5.07;;;2.13;;
69485;SDS011;56677;51.710;5.366;2022-12-07T18:08:48;8.07;;;2.17;;
69485;SDS011;56677;51.710;5.366;2022-12-07T18:11:13;5.65;;;2.33;;
69485;SDS011;56677;51.710;5.366;2022-12-07T18:13:38;7.70;;;2.70;;
69485;SDS011;56677;51.710;5.366;2022-12-07T18:16:07;4.53;;;2.13;;
69485;SDS011;56677;51.710;5.366;2022-12-07T18:18:33;5.43;;;2.33;;
69485;SDS011;56677;51.710;5.366;2022-12-07T18:21:03;7.83;;;2.97;;
69485;SDS011;56677;51.710;5.366;2022-12-07T18:23:28;7.20;;;2.67;;
69485;SDS011;56677;51.710;5.366;2022-12-07T18:25:53;7.20;;;2.40;;
69485;SDS011;56677;51.710;5.366;2022-12-07T18:28:18;6.97;;;2.13;;
69485;SDS011;56677;51.710;5.366;2022-12-07T18:30:44;6.53;;;2.17;;
69485;SDS011;56677;51.710;5.366;2022-12-07T18:33:09;5.97;;;2.03;;
69485;SDS011;56677;51.710;5.366;2022-12-07T18:35:34;5.82;;;1.98;;
69485;SDS011;56677;51.710;5.366;2022-12-07T18:37:59;6.65;;;2.25;;
69485;SDS011;56677;51.710;5.366;2022-12-07T18:40:24;5.20;;;2.45;;
69485;SDS011;56677;51.710;5.366;2022-12-07T18:42:49;6.40;;;2.45;;
69485;SDS011;56677;51.710;5.366;2022-12-07T18:45:14;3.33;;;1.83;;
69485;SDS011;56677;51.710;5.366;2022-12-07T18:47:40;5.07;;;2.43;;
69485;SDS011;56677;51.710;5.366;2022-12-07T18:50:05;4.07;;;2.10;;
69485;SDS011;56677;51.710;5.366;2022-12-07T18:52:30;5.70;;;2.17;;
69485;SDS011;56677;51.710;5.366;2022-12-07T18:54:55;6.38;;;2.10;;
69485;SDS011;56677;51.710;5.366;2022-12-07T18:57:20;4.90;;;2.10;;
69485;SDS011;56677;51.710;5.366;2022-12-07T18:59:46;6.10;;;2.03;;
69485;SDS011;56677;51.710;5.366;2022-12-07T19:02:11;5.57;;;2.38;;
69485;SDS011;56677;51.710;5.366;2022-12-07T19:04:36;7.15;;;2.00;;
69485;SDS011;56677;51.710;5.366;2022-12-07T19:07:01;4.32;;;2.08;;
69485;SDS011;56677;51.710;5.366;2022-12-07T19:09:26;6.57;;;1.85;;
69485;SDS011;56677;51.710;5.366;2022-12-07T19:11:51;4.55;;;1.80;;
69485;SDS011;56677;51.710;5.366;2022-12-07T19:16:44;6.20;;;1.92;;
69485;SDS011;56677;51.710;5.366;2022-12-07T19:19:10;6.88;;;2.35;;
69485;SDS011;56677;51.710;5.366;2022-12-07T19:21:35;5.70;;;1.97;;
69485;SDS011;56677;51.710;5.366;2022-12-07T19:24:04;4.70;;;1.90;;
69485;SDS011;56677;51.710;5.366;2022-12-07T19:26:29;4.13;;;2.10;;
69485;SDS011;56677;51.710;5.366;2022-12-07T19:28:54;4.60;;;2.10;;
69485;SDS011;56677;51.710;5.366;2022-12-07T19:31:19;4.05;;;1.60;;
69485;SDS011;56677;51.710;5.366;2022-12-07T19:33:44;4.83;;;2.50;;
69485;SDS011;56677;51.710;5.366;2022-12-07T19:36:09;5.28;;;1.88;;
69485;SDS011;56677;51.710;5.366;2022-12-07T19:38:34;5.88;;;2.40;;
69485;SDS011;56677;51.710;5.366;2022-12-07T19:41:10;3.53;;;1.85;;
69485;SDS011;56677;51.710;5.366;2022-12-07T19:43:35;3.63;;;2.00;;
69485;SDS011;56677;51.710;5.366;2022-12-07T19:46:04;5.13;;;2.33;;
69485;SDS011;56677;51.710;5.366;2022-12-07T19:48:29;5.15;;;2.35;;
69485;SDS011;56677;51.710;5.366;2022-12-07T19:50:54;4.68;;;2.05;;
69485;SDS011;56677;51.710;5.366;2022-12-07T19:53:19;5.40;;;2.47;;
69485;SDS011;56677;51.710;5.366;2022-12-07T19:55:44;5.20;;;2.03;;
69485;SDS011;56677;51.710;5.366;2022-12-07T19:58:09;6.10;;;2.38;;
69485;SDS011;56677;51.710;5.366;2022-12-07T20:00:35;6.30;;;2.20;;
69485;SDS011;56677;51.710;5.366;2022-12-07T20:03:00;6.47;;;2.05;;
69485;SDS011;56677;51.710;5.366;2022-12-07T20:05:25;6.63;;;2.58;;
69485;SDS011;56677;51.710;5.366;2022-12-07T20:07:50;4.30;;;1.73;;
69485;SDS011;56677;51.710;5.366;2022-12-07T20:10:15;4.20;;;1.80;;
69485;SDS011;56677;51.710;5.366;2022-12-07T20:12:40;5.05;;;1.98;;
69485;SDS011;56677;51.710;5.366;2022-12-07T20:15:05;6.55;;;1.83;;
69485;SDS011;56677;51.710;5.366;2022-12-07T20:17:31;6.63;;;1.90;;
69485;SDS011;56677;51.710;5.366;2022-12-07T20:19:56;5.87;;;2.10;;
69485;SDS011;56677;51.710;5.366;2022-12-07T20:22:22;4.82;;;1.55;;
69485;SDS011;56677;51.710;5.366;2022-12-07T20:24:47;5.47;;;1.87;;
69485;SDS011;56677;51.710;5.366;2022-12-07T20:27:12;5.80;;;2.42;;
69485;SDS011;56677;51.710;5.366;2022-12-07T20:29:37;8.27;;;2.30;;
69485;SDS011;56677;51.710;5.366;2022-12-07T20:32:02;5.80;;;2.00;;
69485;SDS011;56677;51.710;5.366;2022-12-07T20:34:27;4.67;;;1.97;;
69485;SDS011;56677;51.710;5.366;2022-12-07T20:36:53;4.78;;;2.05;;
69485;SDS011;56677;51.710;5.366;2022-12-07T20:39:18;3.55;;;2.03;;
69485;SDS011;56677;51.710;5.366;2022-12-07T20:41:43;4.97;;;2.17;;
69485;SDS011;56677;51.710;5.366;2022-12-07T20:44:08;5.65;;;1.83;;
69485;SDS011;56677;51.710;5.366;2022-12-07T20:46:33;6.75;;;2.15;;
69485;SDS011;56677;51.710;5.366;2022-12-07T20:48:59;5.82;;;2.10;;
69485;SDS011;56677;51.710;5.366;2022-12-07T20:51:24;3.08;;;1.50;;
69485;SDS011;56677;51.710;5.366;2022-12-07T20:53:49;3.88;;;2.13;;
69485;SDS011;56677;51.710;5.366;2022-12-07T20:56:18;4.53;;;1.75;;
69485;SDS011;56677;51.710;5.366;2022-12-07T20:58:44;6.03;;;2.10;;
69485;SDS011;56677;51.710;5.366;2022-12-07T21:01:09;3.88;;;1.40;;
69485;SDS011;56677;51.710;5.366;2022-12-07T21:03:34;4.63;;;2.00;;
69485;SDS011;56677;51.710;5.366;2022-12-07T21:06:02;3.28;;;1.73;;
69485;SDS011;56677;51.710;5.366;2022-12-07T21:08:27;5.25;;;1.90;;
69485;SDS011;56677;51.710;5.366;2022-12-07T21:10:52;4.85;;;2.42;;
69485;SDS011;56677;51.710;5.366;2022-12-07T21:13:17;5.32;;;2.03;;
69485;SDS011;56677;51.710;5.366;2022-12-07T21:15:42;5.68;;;2.60;;
69485;SDS011;56677;51.710;5.366;2022-12-07T21:18:07;8.18;;;2.65;;
69485;SDS011;56677;51.710;5.366;2022-12-07T21:20:32;8.90;;;2.97;;
69485;SDS011;56677;51.710;5.366;2022-12-07T21:22:58;9.30;;;2.83;;
69485;SDS011;56677;51.710;5.366;2022-12-07T21:25:23;11.07;;;2.72;;
69485;SDS011;56677;51.710;5.366;2022-12-07T21:27:48;10.98;;;3.25;;
69485;SDS011;56677;51.710;5.366;2022-12-07T21:30:13;11.35;;;3.42;;
69485;SDS011;56677;51.710;5.366;2022-12-07T21:32:38;9.80;;;2.97;;
69485;SDS011;56677;51.710;5.366;2022-12-07T21:35:03;12.52;;;3.75;;
69485;SDS011;56677;51.710;5.366;2022-12-07T21:37:28;10.87;;;3.43;;
69485;SDS011;56677;51.710;5.366;2022-12-07T21:39:54;10.68;;;2.88;;
69485;SDS011;56677;51.710;5.366;2022-12-07T21:42:19;11.30;;;3.45;;
69485;SDS011;56677;51.710;5.366;2022-12-07T21:44:44;10.80;;;3.75;;
69485;SDS011;56677;51.710;5.366;2022-12-07T21:47:09;10.05;;;3.50;;
69485;SDS011;56677;51.710;5.366;2022-12-07T21:49:34;10.02;;;3.35;;
69485;SDS011;56677;51.710;5.366;2022-12-07T21:51:59;9.82;;;3.40;;
69485;SDS011;56677;51.710;5.366;2022-12-07T21:54:24;10.73;;;3.30;;
69485;SDS011;56677;51.710;5.366;2022-12-07T21:56:49;9.32;;;3.05;;
69485;SDS011;56677;51.710;5.366;2022-12-07T21:59:15;11.63;;;3.63;;
69485;SDS011;56677;51.710;5.366;2022-12-07T22:01:40;7.95;;;3.30;;
69485;SDS011;56677;51.710;5.366;2022-12-07T22:04:07;10.90;;;3.43;;
69485;SDS011;56677;51.710;5.366;2022-12-07T22:06:33;10.18;;;3.65;;
69485;SDS011;56677;51.710;5.366;2022-12-07T22:08:58;9.20;;;3.17;;
69485;SDS011;56677;51.710;5.366;2022-12-07T22:11:23;10.33;;;3.63;;
69485;SDS011;56677;51.710;5.366;2022-12-07T22:13:49;8.05;;;3.33;;
69485;SDS011;56677;51.710;5.366;2022-12-07T22:16:14;12.57;;;3.40;;
69485;SDS011;56677;51.710;5.366;2022-12-07T22:18:39;9.43;;;3.40;;
69485;SDS011;56677;51.710;5.366;2022-12-07T22:21:04;12.02;;;3.08;;
69485;SDS011;56677;51.710;5.366;2022-12-07T22:23:30;8.13;;;2.97;;
69485;SDS011;56677;51.710;5.366;2022-12-07T22:25:55;7.60;;;2.80;;
69485;SDS011;56677;51.710;5.366;2022-12-07T22:28:20;11.05;;;3.40;;
69485;SDS011;56677;51.710;5.366;2022-12-07T22:30:46;9.27;;;2.95;;
69485;SDS011;56677;51.710;5.366;2022-12-07T22:33:11;9.43;;;2.53;;
69485;SDS011;56677;51.710;5.366;2022-12-07T22:35:36;7.78;;;3.35;;
